South Bend, IN (46556)

7:26 PM EDT on September 03, 2015 (GMT -0400)
Holy Cross Village | | Change Station
CLOSE
Current Station
Personal Weather Station
Location: Notre Dame, IN
Elevation: 719 ft
Nearby Weather Stations

Elev 719 ft 41.70 °N, 86.25 °W | Updated 2 minutes ago

Clear
Clear
85.6 °F
Feels Like 93 °F
N
1.7
Wind Variable Wind from SE

Today
High -- | Low -- °F
--% Chance of Precip.
Yesterday
High -- | Low -- °F
Precip. -- in
7:12 AM 8:15 PM
Waning Gibbous, 66% visible
Pressure 29.88 in
Visibility 10.0 miles
Clouds Clear
Heat Index 93 °F
Dew Point 73 °F
Humidity 66%
Rainfall 0.00 in
Snow Depth Not available.
UV 1 out of 12
Pollen 10.10 out of 12
Air Quality Not available.
Flu Activity Not available.
METAR KSBN 032254Z 26008KT 10SM CLR 30/21 A2990 RMK AO2 SLP118 T03000206
Pressure 29.88 in
Visibility 10.0 miles
Clouds Clear
Heat Index 93 °F
Dew Point 73 °F
Humidity 66%
Rainfall 0.00 in
Snow Depth Not available.
UV 1 out of 12
Pollen 10.10 out of 12
Air Quality Not available.
Flu Activity Not available.
METAR KSBN 032254Z 26008KT 10SM CLR 30/21 A2990 RMK AO2 SLP118 T03000206

10-Day Weather Forecast

×

Almanac

Astronomy

Sep. 03, 2015 Rise Set
Actual Time
Civil Twilight
Nautical Twilight
Astronomical Twilight
Moon
Length of Visible Light
Length of Day
Tomorrow will be .
, % of the Moon is Illuminated

Today's Extremes

State Highs State Lows

Community

WunderPhotos

Upload Photos

1,852,060 photos uploaded!

WunderBlogs® & News

Nearby

Air Quality

  Air Quality AQ Index Pollutant
Not available.

Snow Depth

Station Depth Elevation

Earthquake Activity

City Distance Mag. Time & Date
Minimum magnitude displayed is 2.5.

Coastal Water Temperatures

Place Temperature

Stations

Nearby Weather Stations

Station Location Temp. Windchill Dew Point Humidity Wind Precip. Elev Updated Type